sensor_id;sensor_type;location;lat;lon;timestamp;pressure;altitude;pressure_sealevel;temperature;humidity
66273;BME280;58450;52.150;4.466;2022-12-18T00:01:23;102728.81;;;-2.86;100.00
66273;BME280;58450;52.150;4.466;2022-12-18T00:03:53;102734.88;;;-2.84;100.00
66273;BME280;58450;52.150;4.466;2022-12-18T00:06:22;102733.16;;;-2.85;100.00
66273;BME280;58450;52.150;4.466;2022-12-18T00:08:51;102728.09;;;-2.91;100.00
66273;BME280;58450;52.150;4.466;2022-12-18T00:11:20;102736.06;;;-2.93;100.00
66273;BME280;58450;52.150;4.466;2022-12-18T00:13:50;102730.00;;;-2.95;100.00
66273;BME280;58450;52.150;4.466;2022-12-18T00:16:20;102728.38;;;-2.99;100.00
66273;BME280;58450;52.150;4.466;2022-12-18T00:18:52;102726.75;;;-3.03;100.00
66273;BME280;58450;52.150;4.466;2022-12-18T00:21:21;102732.06;;;-3.05;100.00
66273;BME280;58450;52.150;4.466;2022-12-18T00:23:49;102738.25;;;-3.06;100.00
66273;BME280;58450;52.150;4.466;2022-12-18T00:26:19;102739.03;;;-3.02;100.00
66273;BME280;58450;52.150;4.466;2022-12-18T00:28:49;102722.50;;;-3.07;100.00
66273;BME280;58450;52.150;4.466;2022-12-18T00:31:20;102726.06;;;-3.08;100.00
66273;BME280;58450;52.150;4.466;2022-12-18T00:33:50;102727.94;;;-3.12;100.00
66273;BME280;58450;52.150;4.466;2022-12-18T00:36:19;102723.59;;;-3.13;100.00
66273;BME280;58450;52.150;4.466;2022-12-18T00:38:48;102729.53;;;-3.08;100.00
66273;BME280;58450;52.150;4.466;2022-12-18T00:41:17;102717.28;;;-3.09;100.00
66273;BME280;58450;52.150;4.466;2022-12-18T00:44:06;102727.25;;;-3.19;100.00
66273;BME280;58450;52.150;4.466;2022-12-18T00:46:37;102731.78;;;-3.22;100.00
66273;BME280;58450;52.150;4.466;2022-12-18T00:49:05;102730.78;;;-3.18;100.00
66273;BME280;58450;52.150;4.466;2022-12-18T00:51:33;102735.38;;;-3.25;100.00
66273;BME280;58450;52.150;4.466;2022-12-18T00:54:01;102738.88;;;-3.24;100.00
66273;BME280;58450;52.150;4.466;2022-12-18T00:56:28;102732.59;;;-3.20;100.00
66273;BME280;58450;52.150;4.466;2022-12-18T00:58:56;102731.81;;;-3.24;100.00
66273;BME280;58450;52.150;4.466;2022-12-18T01:01:23;102734.56;;;-3.27;100.00
66273;BME280;58450;52.150;4.466;2022-12-18T01:03:52;102736.94;;;-3.19;100.00
66273;BME280;58450;52.150;4.466;2022-12-18T01:06:19;102744.56;;;-3.10;100.00
66273;BME280;58450;52.150;4.466;2022-12-18T01:08:47;102748.75;;;-3.04;100.00
66273;BME280;58450;52.150;4.466;2022-12-18T01:11:17;102753.03;;;-3.02;100.00
66273;BME280;58450;52.150;4.466;2022-12-18T01:13:46;102752.13;;;-3.01;100.00
66273;BME280;58450;52.150;4.466;2022-12-18T01:16:14;102749.56;;;-3.02;100.00
66273;BME280;58450;52.150;4.466;2022-12-18T01:18:44;102751.41;;;-3.06;100.00
66273;BME280;58450;52.150;4.466;2022-12-18T01:21:14;102740.22;;;-3.13;100.00
66273;BME280;58450;52.150;4.466;2022-12-18T01:23:44;102732.59;;;-3.20;100.00
66273;BME280;58450;52.150;4.466;2022-12-18T01:26:14;102730.88;;;-3.21;100.00
66273;BME280;58450;52.150;4.466;2022-12-18T01:28:43;102739.22;;;-3.08;100.00
66273;BME280;58450;52.150;4.466;2022-12-18T01:31:18;102741.16;;;-3.14;100.00
66273;BME280;58450;52.150;4.466;2022-12-18T01:33:47;102745.47;;;-3.11;100.00
66273;BME280;58450;52.150;4.466;2022-12-18T01:36:18;102753.47;;;-3.14;100.00
66273;BME280;58450;52.150;4.466;2022-12-18T01:38:47;102750.94;;;-3.17;100.00
66273;BME280;58450;52.150;4.466;2022-12-18T01:41:17;102752.69;;;-3.18;100.00
66273;BME280;58450;52.150;4.466;2022-12-18T01:43:50;102767.53;;;-3.15;100.00
66273;BME280;58450;52.150;4.466;2022-12-18T01:46:21;102765.03;;;-3.20;100.00
66273;BME280;58450;52.150;4.466;2022-12-18T01:48:54;102759.22;;;-3.30;100.00
66273;BME280;58450;52.150;4.466;2022-12-18T01:51:26;102757.50;;;-3.31;100.00
66273;BME280;58450;52.150;4.466;2022-12-18T01:53:56;102768.22;;;-3.37;100.00
66273;BME280;58450;52.150;4.466;2022-12-18T01:56:26;102773.34;;;-3.32;100.00
66273;BME280;58450;52.150;4.466;2022-12-18T01:58:58;102773.53;;;-3.38;100.00
66273;BME280;58450;52.150;4.466;2022-12-18T02:01:30;102775.94;;;-3.31;100.00
66273;BME280;58450;52.150;4.466;2022-12-18T02:04:19;102775.88;;;-3.29;100.00
66273;BME280;58450;52.150;4.466;2022-12-18T02:06:51;102780.47;;;-3.36;100.00
66273;BME280;58450;52.150;4.466;2022-12-18T02:09:31;102778.47;;;-3.28;100.00
66273;BME280;58450;52.150;4.466;2022-12-18T02:12:11;102777.75;;;-3.33;100.00
66273;BME280;58450;52.150;4.466;2022-12-18T02:14:49;102781.50;;;-3.42;100.00
66273;BME280;58450;52.150;4.466;2022-12-18T02:17:31;102781.78;;;-3.51;100.00
66273;BME280;58450;52.150;4.466;2022-12-18T02:20:12;102781.09;;;-3.56;100.00
66273;BME280;58450;52.150;4.466;2022-12-18T02:22:53;102774.94;;;-3.55;100.00
66273;BME280;58450;52.150;4.466;2022-12-18T02:26:04;102767.63;;;-3.47;100.00
66273;BME280;58450;52.150;4.466;2022-12-18T02:28:42;102775.34;;;-3.41;100.00
66273;BME280;58450;52.150;4.466;2022-12-18T02:31:16;102765.81;;;-3.45;100.00
66273;BME280;58450;52.150;4.466;2022-12-18T02:33:49;102769.53;;;-3.52;100.00
66273;BME280;58450;52.150;4.466;2022-12-18T02:36:18;102765.06;;;-3.48;100.00
66273;BME280;58450;52.150;4.466;2022-12-18T02:38:50;102757.19;;;-3.50;100.00
66273;BME280;58450;52.150;4.466;2022-12-18T02:41:21;102750.13;;;-3.48;100.00
66273;BME280;58450;52.150;4.466;2022-12-18T02:43:55;102741.56;;;-3.54;100.00
66273;BME280;58450;52.150;4.466;2022-12-18T02:46:30;102737.19;;;-3.54;100.00
66273;BME280;58450;52.150;4.466;2022-12-18T02:49:08;102731.13;;;-3.58;100.00
66273;BME280;58450;52.150;4.466;2022-12-18T02:51:47;102724.13;;;-3.57;100.00
66273;BME280;58450;52.150;4.466;2022-12-18T02:54:26;102730.59;;;-3.69;100.00
66273;BME280;58450;52.150;4.466;2022-12-18T02:57:10;102724.59;;;-3.73;100.00
66273;BME280;58450;52.150;4.466;2022-12-18T02:59:50;102728.41;;;-3.83;100.00
66273;BME280;58450;52.150;4.466;2022-12-18T03:02:29;102722.81;;;-3.72;100.00
66273;BME280;58450;52.150;4.466;2022-12-18T03:05:04;102719.34;;;-3.74;100.00
66273;BME280;58450;52.150;4.466;2022-12-18T03:07:40;102724.16;;;-3.89;100.00
66273;BME280;58450;52.150;4.466;2022-12-18T03:10:23;102724.88;;;-3.82;100.00
66273;BME280;58450;52.150;4.466;2022-12-18T03:13:02;102717.97;;;-3.86;100.00
66273;BME280;58450;52.150;4.466;2022-12-18T03:15:35;102718.28;;;-3.97;100.00
66273;BME280;58450;52.150;4.466;2022-12-18T03:18:10;102710.53;;;-4.02;100.00
66273;BME280;58450;52.150;4.466;2022-12-18T03:20:43;102715.03;;;-4.05;100.00
66273;BME280;58450;52.150;4.466;2022-12-18T03:23:16;102706.19;;;-4.03;100.00
66273;BME280;58450;52.150;4.466;2022-12-18T03:25:49;102716.47;;;-3.95;100.00
66273;BME280;58450;52.150;4.466;2022-12-18T03:28:22;102712.94;;;-3.94;100.00
66273;BME280;58450;52.150;4.466;2022-12-18T03:30:52;102720.22;;;-4.02;100.00
66273;BME280;58450;52.150;4.466;2022-12-18T03:33:27;102712.22;;;-3.99;100.00
66273;BME280;58450;52.150;4.466;2022-12-18T03:35:59;102714.41;;;-4.13;100.00
66273;BME280;58450;52.150;4.466;2022-12-18T03:38:28;102709.72;;;-4.04;100.00
66273;BME280;58450;52.150;4.466;2022-12-18T03:40:59;102713.66;;;-4.19;100.00
66273;BME280;58450;52.150;4.466;2022-12-18T03:43:43;102704.41;;;-4.32;100.00
66273;BME280;58450;52.150;4.466;2022-12-18T03:46:24;102697.13;;;-4.22;100.00
66273;BME280;58450;52.150;4.466;2022-12-18T03:49:01;102693.81;;;-4.29;100.00
66273;BME280;58450;52.150;4.466;2022-12-18T03:51:39;102693.84;;;-4.31;100.00
66273;BME280;58450;52.150;4.466;2022-12-18T03:54:11;102691.13;;;-4.27;100.00
66273;BME280;58450;52.150;4.466;2022-12-18T03:56:43;102691.13;;;-4.27;100.00
66273;BME280;58450;52.150;4.466;2022-12-18T03:59:17;102691.28;;;-4.32;100.00
66273;BME280;58450;52.150;4.466;2022-12-18T04:01:49;102693.84;;;-4.31;100.00
66273;BME280;58450;52.150;4.466;2022-12-18T04:04:20;102699.91;;;-4.28;100.00
66273;BME280;58450;52.150;4.466;2022-12-18T04:06:49;102700.63;;;-4.22;100.00
66273;BME280;58450;52.150;4.466;2022-12-18T04:09:19;102701.38;;;-4.18;100.00
66273;BME280;58450;52.150;4.466;2022-12-18T04:11:47;102702.53;;;-4.27;100.00
66273;BME280;58450;52.150;4.466;2022-12-18T04:14:16;102707.81;;;-4.28;100.00
66273;BME280;58450;52.150;4.466;2022-12-18T04:16:44;102706.22;;;-4.34;100.00
66273;BME280;58450;52.150;4.466;2022-12-18T04:19:12;102705.91;;;-4.23;100.00
66273;BME280;58450;52.150;4.466;2022-12-18T04:21:39;102709.31;;;-4.20;100.00
66273;BME280;58450;52.150;4.466;2022-12-18T04:24:07;102702.34;;;-4.21;100.00
66273;BME280;58450;52.150;4.466;2022-12-18T04:26:35;102708.34;;;-4.17;100.00
66273;BME280;58450;52.150;4.466;2022-12-18T04:29:02;102706.97;;;-4.31;100.00
66273;BME280;58450;52.150;4.466;2022-12-18T04:31:31;102712.38;;;-4.35;100.00
66273;BME280;58450;52.150;4.466;2022-12-18T04:33:59;102714.34;;;-4.42;100.00
66273;BME280;58450;52.150;4.466;2022-12-18T04:36:26;102714.44;;;-4.47;100.00
66273;BME280;58450;52.150;4.466;2022-12-18T04:38:54;102708.28;;;-4.46;100.00
66273;BME280;58450;52.150;4.466;2022-12-18T04:41:22;102716.31;;;-4.50;100.00
66273;BME280;58450;52.150;4.466;2022-12-18T04:43:49;102720.59;;;-4.46;100.00
66273;BME280;58450;52.150;4.466;2022-12-18T04:46:17;102716.25;;;-4.49;100.00
66273;BME280;58450;52.150;4.466;2022-12-18T04:48:46;102723.22;;;-4.46;100.00
66273;BME280;58450;52.150;4.466;2022-12-18T04:51:14;102718.88;;;-4.47;100.00
66273;BME280;58450;52.150;4.466;2022-12-18T04:53:42;102711.97;;;-4.51;100.00
66273;BME280;58450;52.150;4.466;2022-12-18T04:56:12;102704.00;;;-4.48;100.00
66273;BME280;58450;52.150;4.466;2022-12-18T04:58:42;102707.69;;;-4.55;100.00
66273;BME280;58450;52.150;4.466;2022-12-18T05:01:11;102709.19;;;-4.47;100.00
66273;BME280;58450;52.150;4.466;2022-12-18T05:03:41;102706.53;;;-4.45;100.00
66273;BME280;58450;52.150;4.466;2022-12-18T05:06:10;102700.50;;;-4.49;100.00
66273;BME280;58450;52.150;4.466;2022-12-18T05:08:37;102712.22;;;-4.61;100.00
66273;BME280;58450;52.150;4.466;2022-12-18T05:11:07;102712.25;;;-4.62;100.00
66273;BME280;58450;52.150;4.466;2022-12-18T05:13:36;102713.22;;;-4.66;100.00
66273;BME280;58450;52.150;4.466;2022-12-18T05:16:05;102718.63;;;-4.71;100.00
66273;BME280;58450;52.150;4.466;2022-12-18T05:18:34;102715.84;;;-4.66;100.00
66273;BME280;58450;52.150;4.466;2022-12-18T05:21:02;102717.56;;;-4.65;100.00
66273;BME280;58450;52.150;4.466;2022-12-18T05:23:31;102707.13;;;-4.67;100.00
66273;BME280;58450;52.150;4.466;2022-12-18T05:26:00;102707.06;;;-4.65;100.00
66273;BME280;58450;52.150;4.466;2022-12-18T05:28:31;102711.41;;;-4.63;100.00
66273;BME280;58450;52.150;4.466;2022-12-18T05:31:01;102711.63;;;-4.72;100.00
66273;BME280;58450;52.150;4.466;2022-12-18T05:33:32;102708.44;;;-4.83;100.00
66273;BME280;58450;52.150;4.466;2022-12-18T05:36:02;102698.31;;;-4.99;100.00
66273;BME280;58450;52.150;4.466;2022-12-18T05:38:35;102696.06;;;-5.13;100.00
66273;BME280;58450;52.150;4.466;2022-12-18T05:41:04;102682.97;;;-5.14;100.00
66273;BME280;58450;52.150;4.466;2022-12-18T05:43:34;102680.47;;;-5.19;100.00
66273;BME280;58450;52.150;4.466;2022-12-18T05:46:03;102681.38;;;-5.20;100.00
66273;BME280;58450;52.150;4.466;2022-12-18T05:48:33;102686.56;;;-5.19;100.00
66273;BME280;58450;52.150;4.466;2022-12-18T05:51:05;102691.13;;;-5.25;100.00
66273;BME280;58450;52.150;4.466;2022-12-18T05:53:36;102692.09;;;-5.29;100.00
66273;BME280;58450;52.150;4.466;2022-12-18T05:56:06;102687.00;;;-5.36;100.00
66273;BME280;58450;52.150;4.466;2022-12-18T05:58:35;102692.28;;;-5.37;100.00
66273;BME280;58450;52.150;4.466;2022-12-18T06:01:07;102688.63;;;-5.30;100.00
66273;BME280;58450;52.150;4.466;2022-12-18T06:03:37;102679.94;;;-5.34;100.00
66273;BME280;58450;52.150;4.466;2022-12-18T06:06:13;102682.56;;;-5.32;100.00
66273;BME280;58450;52.150;4.466;2022-12-18T06:08:43;102680.81;;;-5.33;100.00
66273;BME280;58450;52.150;4.466;2022-12-18T06:11:11;102676.56;;;-5.39;100.00
66273;BME280;58450;52.150;4.466;2022-12-18T06:13:39;102668.78;;;-5.42;100.00
66273;BME280;58450;52.150;4.466;2022-12-18T06:16:07;102674.91;;;-5.41;100.00
66273;BME280;58450;52.150;4.466;2022-12-18T06:18:37;102665.19;;;-5.38;100.00
66273;BME280;58450;52.150;4.466;2022-12-18T06:21:05;102658.09;;;-5.34;100.00
66273;BME280;58450;52.150;4.466;2022-12-18T06:23:32;102659.75;;;-5.30;100.00
66273;BME280;58450;52.150;4.466;2022-12-18T06:26:05;102659.69;;;-5.28;100.00
66273;BME280;58450;52.150;4.466;2022-12-18T06:28:33;102656.94;;;-5.24;100.00
66273;BME280;58450;52.150;4.466;2022-12-18T06:31:02;102642.22;;;-5.29;100.00
66273;BME280;58450;52.150;4.466;2022-12-18T06:33:31;102644.81;;;-5.28;100.00
66273;BME280;58450;52.150;4.466;2022-12-18T06:36:00;102638.56;;;-5.22;100.00
66273;BME280;58450;52.150;4.466;2022-12-18T06:38:30;102629.69;;;-5.18;100.00
66273;BME280;58450;52.150;4.466;2022-12-18T06:40:58;102629.69;;;-5.18;100.00
66273;BME280;58450;52.150;4.466;2022-12-18T06:43:27;102632.34;;;-5.20;100.00
66273;BME280;58450;52.150;4.466;2022-12-18T06:45:58;102627.09;;;-5.20;100.00
66273;BME280;58450;52.150;4.466;2022-12-18T06:48:26;102620.09;;;-5.19;100.00
66273;BME280;58450;52.150;4.466;2022-12-18T06:50:54;102622.66;;;-5.17;100.00
66273;BME280;58450;52.150;4.466;2022-12-18T06:53:22;102613.97;;;-5.20;100.00
66273;BME280;58450;52.150;4.466;2022-12-18T06:55:49;102613.13;;;-5.20;100.00
66273;BME280;58450;52.150;4.466;2022-12-18T06:58:17;102621.94;;;-5.23;100.00
66273;BME280;58450;52.150;4.466;2022-12-18T07:00:46;102614.94;;;-5.24;100.00
66273;BME280;58450;52.150;4.466;2022-12-18T07:03:14;102611.44;;;-5.23;100.00
66273;BME280;58450;52.150;4.466;2022-12-18T07:05:41;102601.06;;;-5.27;100.00
66273;BME280;58450;52.150;4.466;2022-12-18T07:08:09;102599.19;;;-5.24;100.00
66273;BME280;58450;52.150;4.466;2022-12-18T07:10:41;102601.72;;;-5.19;100.00
66273;BME280;58450;52.150;4.466;2022-12-18T07:13:09;102600.25;;;-5.29;100.00
66273;BME280;58450;52.150;4.466;2022-12-18T07:15:37;102588.09;;;-5.34;100.00
66273;BME280;58450;52.150;4.466;2022-12-18T07:18:06;102587.28;;;-5.36;100.00
66273;BME280;58450;52.150;4.466;2022-12-18T07:20:33;102570.19;;;-5.51;100.00
66273;BME280;58450;52.150;4.466;2022-12-18T07:23:01;102571.69;;;-5.42;100.00
66273;BME280;58450;52.150;4.466;2022-12-18T07:25:29;102556.09;;;-5.46;100.00
66273;BME280;58450;52.150;4.466;2022-12-18T07:27:57;102552.56;;;-5.45;100.00
66273;BME280;58450;52.150;4.466;2022-12-18T07:30:24;102545.53;;;-5.45;100.00
66273;BME280;58450;52.150;4.466;2022-12-18T07:32:52;102536.69;;;-5.41;100.00
66273;BME280;58450;52.150;4.466;2022-12-18T07:35:21;102530.59;;;-5.41;100.00
66273;BME280;58450;52.150;4.466;2022-12-18T07:37:48;102535.78;;;-5.40;100.00
66273;BME280;58450;52.150;4.466;2022-12-18T07:40:16;102531.31;;;-5.36;100.00
66273;BME280;58450;52.150;4.466;2022-12-18T07:42:43;102530.50;;;-5.38;100.00
66273;BME280;58450;52.150;4.466;2022-12-18T07:45:11;102527.88;;;-5.38;100.00
66273;BME280;58450;52.150;4.466;2022-12-18T07:47:38;102534.94;;;-5.40;100.00
66273;BME280;58450;52.150;4.466;2022-12-18T07:50:07;102537.66;;;-5.45;100.00
66273;BME280;58450;52.150;4.466;2022-12-18T07:52:36;102544.63;;;-5.44;100.00
66273;BME280;58450;52.150;4.466;2022-12-18T07:55:05;102542.88;;;-5.43;100.00
66273;BME280;58450;52.150;4.466;2022-12-18T07:57:33;102542.00;;;-5.42;100.00
66273;BME280;58450;52.150;4.466;2022-12-18T08:00:00;102538.53;;;-5.44;100.00
66273;BME280;58450;52.150;4.466;2022-12-18T08:02:30;102553.31;;;-5.40;100.00
66273;BME280;58450;52.150;4.466;2022-12-18T08:04:57;102547.06;;;-5.36;100.00
66273;BME280;58450;52.150;4.466;2022-12-18T08:07:25;102541.81;;;-5.36;100.00
66273;BME280;58450;52.150;4.466;2022-12-18T08:09:54;102544.16;;;-5.27;100.00
66273;BME280;58450;52.150;4.466;2022-12-18T08:12:21;102530.16;;;-5.26;100.00
66273;BME280;58450;52.150;4.466;2022-12-18T08:14:50;102527.53;;;-5.26;100.00
66273;BME280;58450;52.150;4.466;2022-12-18T08:17:19;102525.09;;;-5.32;100.00
66273;BME280;58450;52.150;4.466;2022-12-18T08:19:46;102526.59;;;-5.23;100.00
66273;BME280;58450;52.150;4.466;2022-12-18T08:22:14;102515.94;;;-5.17;100.00
66273;BME280;58450;52.150;4.466;2022-12-18T08:24:41;102526.28;;;-5.12;100.00
66273;BME280;58450;52.150;4.466;2022-12-18T08:27:10;102520.94;;;-5.09;100.00
66273;BME280;58450;52.150;4.466;2022-12-18T08:29:38;102535.50;;;-4.97;100.00
66273;BME280;58450;52.150;4.466;2022-12-18T08:32:06;102522.28;;;-4.94;100.00
66273;BME280;58450;52.150;4.466;2022-12-18T08:34:34;102516.22;;;-4.96;100.00
66273;BME280;58450;52.150;4.466;2022-12-18T08:37:01;102532.66;;;-4.90;100.00
66273;BME280;58450;52.150;4.466;2022-12-18T08:39:29;102550.09;;;-4.87;100.00
66273;BME280;58450;52.150;4.466;2022-12-18T08:41:56;102551.50;;;-4.75;100.00
66273;BME280;58450;52.150;4.466;2022-12-18T08:44:43;102566.94;;;-4.64;100.00
66273;BME280;58450;52.150;4.466;2022-12-18T08:47:10;102569.63;;;-4.67;100.00
66273;BME280;58450;52.150;4.466;2022-12-18T08:49:38;102557.47;;;-4.70;100.00
66273;BME280;58450;52.150;4.466;2022-12-18T08:52:06;102556.59;;;-4.70;100.00
66273;BME280;58450;52.150;4.466;2022-12-18T08:54:34;102549.63;;;-4.71;100.00
66273;BME280;58450;52.150;4.466;2022-12-18T08:57:01;102557.97;;;-4.57;100.00
66273;BME280;58450;52.150;4.466;2022-12-18T08:59:29;102563.81;;;-4.47;100.00
66273;BME280;58450;52.150;4.466;2022-12-18T09:01:58;102568.19;;;-4.48;100.00
66273;BME280;58450;52.150;4.466;2022-12-18T09:04:25;102568.09;;;-4.45;100.00
66273;BME280;58450;52.150;4.466;2022-12-18T09:06:55;102564.84;;;-4.53;100.00
66273;BME280;58450;52.150;4.466;2022-12-18T09:09:23;102563.47;;;-4.36;100.00
66273;BME280;58450;52.150;4.466;2022-12-18T09:11:50;102553.72;;;-4.33;100.00
66273;BME280;58450;52.150;4.466;2022-12-18T09:14:18;102552.09;;;-4.37;100.00
66273;BME280;58450;52.150;4.466;2022-12-18T09:16:45;102543.25;;;-4.34;100.00
66273;BME280;58450;52.150;4.466;2022-12-18T09:19:14;102525.69;;;-4.32;100.00
66273;BME280;58450;52.150;4.466;2022-12-18T09:21:42;102518.78;;;-4.36;100.00
66273;BME280;58450;52.150;4.466;2022-12-18T09:24:12;102519.06;;;-4.46;100.00
66273;BME280;58450;52.150;4.466;2022-12-18T09:26:41;102519.53;;;-4.33;100.00
66273;BME280;58450;52.150;4.466;2022-12-18T09:29:08;102531.59;;;-4.25;100.00
66273;BME280;58450;52.150;4.466;2022-12-18T09:31:37;102534.94;;;-4.20;100.00
66273;BME280;58450;52.150;4.466;2022-12-18T09:34:05;102535.03;;;-4.23;100.00
66273;BME280;58450;52.150;4.466;2022-12-18T09:36:34;102523.38;;;-4.14;100.00
66273;BME280;58450;52.150;4.466;2022-12-18T09:39:02;102521.94;;;-4.25;100.00
66273;BME280;58450;52.150;4.466;2022-12-18T09:41:43;102508.94;;;-4.30;100.00
66273;BME280;58450;52.150;4.466;2022-12-18T09:44:25;102517.63;;;-4.27;100.00
66273;BME280;58450;52.150;4.466;2022-12-18T09:47:02;102524.75;;;-4.31;100.00
66273;BME280;58450;52.150;4.466;2022-12-18T09:49:41;102529.13;;;-4.30;100.00
66273;BME280;58450;52.150;4.466;2022-12-18T09:52:17;102528.97;;;-4.25;100.00
66273;BME280;58450;52.150;4.466;2022-12-18T09:54:52;102520.22;;;-4.26;100.00
66273;BME280;58450;52.150;4.466;2022-12-18T09:57:24;102517.44;;;-4.21;100.00
66273;BME280;58450;52.150;4.466;2022-12-18T09:59:55;102510.44;;;-4.21;100.00
66273;BME280;58450;52.150;4.466;2022-12-18T10:02:26;102508.50;;;-4.16;100.00
66273;BME280;58450;52.150;4.466;2022-12-18T10:05:07;102508.34;;;-4.11;100.00
66273;BME280;58450;52.150;4.466;2022-12-18T10:07:47;102511.59;;;-4.03;100.00
66273;BME280;58450;52.150;4.466;2022-12-18T10:10:33;102502.63;;;-3.97;100.00
66273;BME280;58450;52.150;4.466;2022-12-18T10:13:26;102508.59;;;-3.92;100.00
66273;BME280;58450;52.150;4.466;2022-12-18T10:16:13;102510.09;;;-3.84;100.00
66273;BME280;58450;52.150;4.466;2022-12-18T10:19:00;102519.81;;;-3.87;100.00
66273;BME280;58450;52.150;4.466;2022-12-18T10:21:45;102507.97;;;-3.73;100.00
66273;BME280;58450;52.150;4.466;2022-12-18T10:24:29;102500.03;;;-3.72;100.00
66273;BME280;58450;52.150;4.466;2022-12-18T10:27:11;102487.69;;;-3.69;100.00
66273;BME280;58450;52.150;4.466;2022-12-18T10:29:42;102489.63;;;-3.75;100.00
66273;BME280;58450;52.150;4.466;2022-12-18T10:32:15;102476.59;;;-3.79;100.00
66273;BME280;58450;52.150;4.466;2022-12-18T10:34:47;102464.22;;;-3.76;100.00
66273;BME280;58450;52.150;4.466;2022-12-18T10:37:16;102463.78;;;-3.63;100.00
66273;BME280;58450;52.150;4.466;2022-12-18T10:40:06;102476.34;;;-3.72;100.00
66273;BME280;58450;52.150;4.466;2022-12-18T10:42:37;102472.81;;;-3.71;100.00
66273;BME280;58450;52.150;4.466;2022-12-18T10:45:13;102463.72;;;-3.62;100.00
66273;BME280;58450;52.150;4.466;2022-12-18T10:47:43;102473.06;;;-3.53;100.00
66273;BME280;58450;52.150;4.466;2022-12-18T10:50:20;102471.41;;;-3.56;100.00
66273;BME280;58450;52.150;4.466;2022-12-18T10:52:55;102473.59;;;-3.43;100.00
66273;BME280;58450;52.150;4.466;2022-12-18T10:55:31;102466.97;;;-3.30;100.00
66273;BME280;58450;52.150;4.466;2022-12-18T10:58:16;102463.69;;;-3.36;100.00
66273;BME280;58450;52.150;4.466;2022-12-18T11:01:03;102458.91;;;-3.25;100.00
66273;BME280;58450;52.150;4.466;2022-12-18T11:03:36;102459.81;;;-3.26;100.00
66273;BME280;58450;52.150;4.466;2022-12-18T11:06:08;102458.09;;;-3.27;100.00
66273;BME280;58450;52.150;4.466;2022-12-18T11:08:37;102461.53;;;-3.25;100.00
66273;BME280;58450;52.150;4.466;2022-12-18T11:11:17;102454.19;;;-3.17;100.00
66273;BME280;58450;52.150;4.466;2022-12-18T11:13:58;102459.13;;;-3.07;100.00
66273;BME280;58450;52.150;4.466;2022-12-18T11:16:30;102456.41;;;-3.06;100.00
66273;BME280;58450;52.150;4.466;2022-12-18T11:19:19;102459.47;;;-2.93;100.00
66273;BME280;58450;52.150;4.466;2022-12-18T11:21:56;102444.25;;;-2.86;100.00
66273;BME280;58450;52.150;4.466;2022-12-18T11:24:28;102434.03;;;-2.94;100.00
66273;BME280;58450;52.150;4.466;2022-12-18T11:27:00;102432.69;;;-2.82;100.00
66273;BME280;58450;52.150;4.466;2022-12-18T11:29:34;102426.63;;;-2.84;100.00
66273;BME280;58450;52.150;4.466;2022-12-18T11:32:29;102420.31;;;-3.02;100.00
66273;BME280;58450;52.150;4.466;2022-12-18T11:35:11;102419.28;;;-2.98;100.00
66273;BME280;58450;52.150;4.466;2022-12-18T11:37:49;102421.94;;;-3.00;100.00
66273;BME280;58450;52.150;4.466;2022-12-18T11:40:29;102418.97;;;-2.90;100.00
66273;BME280;58450;52.150;4.466;2022-12-18T11:43:08;102404.19;;;-2.94;100.00
66273;BME280;58450;52.150;4.466;2022-12-18T11:45:43;102394.84;;;-2.79;100.00
66273;BME280;58450;52.150;4.466;2022-12-18T11:48:21;102384.97;;;-2.74;100.00
66273;BME280;58450;52.150;4.466;2022-12-18T11:50:53;102361.84;;;-2.68;100.00
66273;BME280;58450;52.150;4.466;2022-12-18T11:53:23;102361.06;;;-2.70;100.00
66273;BME280;58450;52.150;4.466;2022-12-18T11:56:07;102359.94;;;-2.64;100.00
66273;BME280;58450;52.150;4.466;2022-12-18T11:59:00;102357.25;;;-2.62;100.00
66273;BME280;58450;52.150;4.466;2022-12-18T12:01:44;102350.19;;;-2.62;100.00
66273;BME280;58450;52.150;4.466;2022-12-18T12:04:40;102351.84;;;-2.59;100.00
66273;BME280;58450;52.150;4.466;2022-12-18T12:07:27;102344.22;;;-2.45;100.00
66273;BME280;58450;52.150;4.466;2022-12-18T12:10:19;102348.09;;;-2.54;100.00
66273;BME280;58450;52.150;4.466;2022-12-18T12:13:07;102345.31;;;-2.50;100.00
66273;BME280;58450;52.150;4.466;2022-12-18T12:15:58;102348.84;;;-2.50;100.00
66273;BME280;58450;52.150;4.466;2022-12-18T12:18:46;102353.84;;;-2.44;100.00
66273;BME280;58450;52.150;4.466;2022-12-18T12:21:28;102348.38;;;-2.39;100.00
66273;BME280;58450;52.150;4.466;2022-12-18T12:24:18;102347.28;;;-2.33;100.00
66273;BME280;58450;52.150;4.466;2022-12-18T12:27:08;102340.41;;;-2.38;100.00
66273;BME280;58450;52.150;4.466;2022-12-18T12:29:54;102338.63;;;-2.37;100.00
66273;BME280;58450;52.150;4.466;2022-12-18T12:32:45;102332.63;;;-2.41;100.00
66273;BME280;58450;52.150;4.466;2022-12-18T12:35:29;102317.59;;;-2.39;100.00
66273;BME280;58450;52.150;4.466;2022-12-18T12:38:09;102319.31;;;-2.38;100.00
66273;BME280;58450;52.150;4.466;2022-12-18T12:40:44;102318.31;;;-2.35;100.00
66273;BME280;58450;52.150;4.466;2022-12-18T12:43:22;102312.84;;;-2.30;100.00
66273;BME280;58450;52.150;4.466;2022-12-18T12:46:01;102305.75;;;-2.28;100.00
66273;BME280;58450;52.150;4.466;2022-12-18T12:48:37;102309.16;;;-2.26;100.00
66273;BME280;58450;52.150;4.466;2022-12-18T12:51:16;102302.09;;;-2.26;100.00
66273;BME280;58450;52.150;4.466;2022-12-18T12:53:47;102298.31;;;-2.20;100.00
66273;BME280;58450;52.150;4.466;2022-12-18T12:56:18;102294.75;;;-2.19;100.00
66273;BME280;58450;52.150;4.466;2022-12-18T12:58:55;102294.34;;;-2.10;100.00
66273;BME280;58450;52.150;4.466;2022-12-18T13:01:35;102282.09;;;-2.11;100.00
66273;BME280;58450;52.150;4.466;2022-12-18T13:04:17;102282.34;;;-2.17;100.00
66273;BME280;58450;52.150;4.466;2022-12-18T13:06:59;102271.66;;;-2.14;100.00
66273;BME280;58450;52.150;4.466;2022-12-18T13:09:32;102278.16;;;-2.21;100.00